createdAt,value
2022-08-26T00:00:25.012Z,99333.13
2022-08-26T00:02:53.503Z,99340.19
2022-08-26T00:05:22.719Z,99324.75
2022-08-26T00:07:51.931Z,99331.47
2022-08-26T00:10:22.787Z,99336.69
2022-08-26T00:12:54.565Z,99337.53
2022-08-26T00:15:25.495Z,99340.03
2022-08-26T00:17:54.580Z,99332.13
2022-08-26T00:20:28.943Z,99335.47
2022-08-26T00:22:57.734Z,99331.22
2022-08-26T00:25:30.248Z,99332.81
2022-08-26T00:27:58.937Z,99337.03
2022-08-26T00:30:30.525Z,99331.13
2022-08-26T00:33:00.251Z,99330.28
2022-08-26T00:35:29.337Z,99329.47
2022-08-26T00:38:04.034Z,99332.22
2022-08-26T00:40:37.737Z,99331.47
2022-08-26T00:43:09.279Z,99331.63
2022-08-26T00:45:45.098Z,99339.34
2022-08-26T00:48:17.565Z,99329.13
2022-08-26T00:50:54.420Z,99333.31
2022-08-26T00:53:26.046Z,99328.28
2022-08-26T00:56:03.208Z,99329.03
2022-08-26T00:58:35.335Z,99325.53
2022-08-26T01:01:04.383Z,99329.13
2022-08-26T01:03:35.640Z,99325.53
2022-08-26T01:06:12.479Z,99317.72
2022-08-26T01:08:42.398Z,99321.97
2022-08-26T01:11:13.068Z,99322.94
2022-08-26T01:13:42.457Z,99333.31
2022-08-26T01:16:14.547Z,99327.34
2022-08-26T01:18:44.741Z,99331.97
2022-08-26T01:21:22.583Z,99327.84
2022-08-26T01:23:57.524Z,99321.88
2022-08-26T01:26:31.202Z,99322.81
2022-08-26T01:29:05.651Z,99309.81
2022-08-26T01:31:42.051Z,99318.53
2022-08-26T01:34:18.551Z,99313.50
2022-08-26T01:36:51.593Z,99313.50
2022-08-26T01:39:22.388Z,99316.19
2022-08-26T01:41:55.318Z,99321.28
2022-08-26T01:44:28.408Z,99315.34
2022-08-26T01:47:00.659Z,99308.44
2022-08-26T01:49:31.964Z,99313.81
2022-08-26T01:52:05.559Z,99303.44
2022-08-26T01:54:37.341Z,99315.66
2022-08-26T01:57:08.120Z,99313.13
2022-08-26T01:59:37.288Z,99307.94
2022-08-26T02:02:06.198Z,99305.44
2022-08-26T02:04:39.218Z,99308.19
2022-08-26T02:07:11.160Z,99302.91
2022-08-26T02:09:42.620Z,99308.88
2022-08-26T02:12:16.523Z,99305.44
2022-08-26T02:14:52.437Z,99304.69
2022-08-26T02:17:24.822Z,99310.09
2022-08-26T02:19:53.943Z,99307.56
2022-08-26T02:22:24.935Z,99302.34
2022-08-26T02:24:58.249Z,99301.50
2022-08-26T02:27:32.162Z,99305.88
2022-08-26T02:30:08.548Z,99300.69
2022-08-26T02:32:37.363Z,99309.38
2022-08-26T02:35:10.057Z,99308.53
2022-08-26T02:37:39.067Z,99311.25
2022-08-26T02:40:15.750Z,99303.44
2022-08-26T02:42:44.449Z,99303.44
2022-08-26T02:45:13.327Z,99299.16
2022-08-26T02:47:46.661Z,99293.94
2022-08-26T02:50:15.477Z,99301.00
2022-08-26T02:52:45.531Z,99299.34
2022-08-26T02:55:16.228Z,99300.25
2022-08-26T02:57:44.981Z,99299.53
2022-08-26T03:00:15.578Z,99297.78
2022-08-26T03:02:44.485Z,99294.28
2022-08-26T03:05:14.096Z,99299.63
2022-08-26T03:07:45.165Z,99284.19
2022-08-26T03:10:16.724Z,99292.59
2022-08-26T03:12:48.097Z,99286.75
2022-08-26T03:15:19.021Z,99287.75
2022-08-26T03:17:50.328Z,99281.94
2022-08-26T03:20:19.987Z,99284.53
2022-08-26T03:22:51.646Z,99288.19
2022-08-26T03:25:23.300Z,99288.19
2022-08-26T03:27:52.839Z,99287.28
2022-08-26T03:30:34.670Z,99276.00
2022-08-26T03:33:03.862Z,99277.66
2022-08-26T03:35:33.577Z,99275.00
2022-08-26T03:38:03.478Z,99281.19
2022-08-26T03:40:34.091Z,99270.19
2022-08-26T03:43:03.425Z,99271.09
2022-08-26T03:45:32.319Z,99274.44
2022-08-26T03:48:02.848Z,99274.44
2022-08-26T03:50:34.242Z,99272.78
2022-08-26T03:53:04.206Z,99271.09
2022-08-26T03:55:37.648Z,99275.44
2022-08-26T03:58:08.060Z,99271.09
2022-08-26T04:00:37.060Z,99269.44
2022-08-26T04:03:06.022Z,99272.03
2022-08-26T04:05:39.651Z,99270.25
2022-08-26T04:08:08.656Z,99270.25
2022-08-26T04:10:40.743Z,99273.69
2022-08-26T04:13:09.609Z,99272.94
2022-08-26T04:15:39.716Z,99271.25
2022-08-26T04:18:08.557Z,99267.75
2022-08-26T04:20:37.356Z,99274.63
2022-08-26T04:23:06.270Z,99275.44
2022-08-26T04:25:35.118Z,99279.63
2022-08-26T04:28:05.859Z,99282.19
2022-08-26T04:30:38.855Z,99271.69
2022-08-26T04:33:13.230Z,99274.38
2022-08-26T04:35:44.221Z,99277.00
2022-08-26T04:38:13.140Z,99271.69
2022-08-26T04:40:46.898Z,99273.22
2022-08-26T04:43:17.379Z,99273.91
2022-08-26T04:45:46.489Z,99279.00
2022-08-26T04:48:16.850Z,99285.75
2022-08-26T04:50:49.448Z,99280.34
2022-08-26T04:53:19.277Z,99281.91
2022-08-26T04:55:48.402Z,99282.50
2022-08-26T04:58:21.480Z,99282.19
2022-08-26T05:00:52.559Z,99283.78
2022-08-26T05:03:23.936Z,99278.75
2022-08-26T05:05:52.916Z,99283.63
2022-08-26T05:08:23.640Z,99280.63
2022-08-26T05:10:56.486Z,99279.44
2022-08-26T05:13:28.902Z,99292.19
2022-08-26T05:16:01.149Z,99281.56
2022-08-26T05:18:30.010Z,99282.97
2022-08-26T05:20:58.809Z,99280.81
2022-08-26T05:23:27.441Z,99285.66
2022-08-26T05:25:59.256Z,99279.97
2022-08-26T05:28:31.257Z,99290.78
2022-08-26T05:31:00.999Z,99289.38
2022-08-26T05:33:29.772Z,99289.97
2022-08-26T05:35:58.757Z,99283.50
2022-08-26T05:38:30.408Z,99283.81
2022-08-26T05:40:59.559Z,99280.78
2022-08-26T05:43:30.557Z,99287.31
2022-08-26T05:46:08.401Z,99282.50
2022-08-26T05:48:37.041Z,99281.38
2022-08-26T05:51:08.898Z,99285.03
2022-08-26T05:53:40.429Z,99292.41
2022-08-26T05:56:13.567Z,99292.06
2022-08-26T05:58:44.165Z,99289.84
2022-08-26T06:01:19.873Z,99291.00
2022-08-26T06:03:53.076Z,99293.72
2022-08-26T06:06:27.460Z,99294.91
2022-08-26T06:08:59.508Z,99285.97
2022-08-26T06:11:32.663Z,99293.03
2022-08-26T06:14:04.401Z,99284.63
2022-08-26T06:16:35.339Z,99293.00
2022-08-26T06:19:11.163Z,99279.81
2022-08-26T06:21:42.008Z,99293.25
2022-08-26T06:24:27.305Z,99289.38
2022-08-26T06:26:58.619Z,99280.91
2022-08-26T06:29:29.667Z,99282.19
2022-08-26T06:31:59.101Z,99286.81
2022-08-26T06:34:30.807Z,99282.88
2022-08-26T06:37:03.655Z,99285.09
2022-08-26T06:39:33.368Z,99293.47
2022-08-26T06:42:03.023Z,99290.66
2022-08-26T06:44:37.157Z,99287.97
2022-08-26T06:47:10.018Z,99287.59
2022-08-26T06:49:38.599Z,99286.34
2022-08-26T06:52:08.652Z,99284.09
2022-08-26T06:54:38.892Z,99277.63
2022-08-26T06:57:07.838Z,99282.34
2022-08-26T06:59:37.711Z,99286.22
2022-08-26T07:02:06.933Z,99281.00
2022-08-26T07:04:37.086Z,99271.81
2022-08-26T07:07:05.587Z,99285.66
2022-08-26T07:09:38.237Z,99276.34
2022-08-26T07:12:07.383Z,99275.81
2022-08-26T07:14:37.846Z,99277.06
2022-08-26T07:17:12.186Z,99276.75
2022-08-26T07:19:42.632Z,99278.97
2022-08-26T07:22:11.199Z,99268.91
2022-08-26T07:24:42.409Z,99276.84
2022-08-26T07:27:13.709Z,99272.25
2022-08-26T07:29:45.022Z,99275.75
2022-08-26T07:32:15.588Z,99274.03
2022-08-26T07:34:45.895Z,99273.38
2022-08-26T07:37:14.491Z,99272.81
2022-08-26T07:39:44.546Z,99271.44
2022-08-26T07:42:15.373Z,99265.44
2022-08-26T07:44:45.592Z,99267.19
2022-08-26T07:47:24.983Z,99275.31
2022-08-26T07:49:56.930Z,99273.91
2022-08-26T07:52:27.352Z,99272.50
2022-08-26T07:54:58.409Z,99275.00
2022-08-26T07:57:27.621Z,99270.53
2022-08-26T07:59:58.332Z,99270.66
2022-08-26T08:02:28.614Z,99263.25
2022-08-26T08:04:58.634Z,99264.25
2022-08-26T08:07:38.600Z,99264.66
2022-08-26T08:10:17.943Z,99257.63
2022-08-26T08:12:51.042Z,99272.66
2022-08-26T08:15:25.521Z,99263.34
2022-08-26T08:17:55.630Z,99262.84
2022-08-26T08:20:28.571Z,99256.91
2022-08-26T08:22:58.163Z,99251.38
2022-08-26T08:25:26.797Z,99256.78
2022-08-26T08:27:55.356Z,99257.38
2022-08-26T08:30:28.254Z,99247.84
2022-08-26T08:32:57.375Z,99241.84
2022-08-26T08:35:26.985Z,99244.41
2022-08-26T08:37:56.976Z,99247.88
2022-08-26T08:40:27.900Z,99239.84
2022-08-26T08:43:06.489Z,99239.09
2022-08-26T08:45:40.339Z,99240.97
2022-08-26T08:48:17.434Z,99245.13
2022-08-26T08:50:50.742Z,99235.66
2022-08-26T08:53:23.556Z,99240.47
2022-08-26T08:56:06.283Z,99231.22
2022-08-26T08:58:47.974Z,99233.81
2022-08-26T09:01:29.468Z,99234.00
2022-08-26T09:04:24.825Z,99232.00
2022-08-26T09:09:34.235Z,99225.94
2022-08-26T09:12:03.844Z,99227.88
2022-08-26T09:14:33.174Z,99217.78
2022-08-26T09:17:10.473Z,99224.38
2022-08-26T09:19:44.994Z,99221.09
2022-08-26T09:22:30.536Z,99215.41
2022-08-26T09:24:59.502Z,99216.13
2022-08-26T09:27:44.314Z,99212.78
2022-08-26T09:30:16.079Z,99216.03
2022-08-26T09:33:00.240Z,99215.91
2022-08-26T09:35:32.367Z,99211.47
2022-08-26T09:38:01.098Z,99205.94
2022-08-26T09:40:34.968Z,99212.34
2022-08-26T09:43:11.543Z,99209.69
2022-08-26T09:45:50.836Z,99216.69
2022-08-26T09:48:35.515Z,99212.66
2022-08-26T09:51:08.695Z,99208.22
2022-08-26T09:53:51.388Z,99202.41
2022-08-26T09:56:32.297Z,99204.19
2022-08-26T09:59:01.912Z,99195.44
2022-08-26T10:01:34.007Z,99197.50
2022-08-26T10:04:11.460Z,99199.63
2022-08-26T10:06:43.558Z,99209.91
2022-08-26T10:09:18.720Z,99197.09
2022-08-26T10:11:52.622Z,99197.06
2022-08-26T10:14:27.847Z,99196.63
2022-08-26T10:17:03.528Z,99193.09
2022-08-26T10:19:55.564Z,99188.94
2022-08-26T10:22:36.089Z,99191.41
2022-08-26T10:25:08.671Z,99188.66
2022-08-26T10:27:53.279Z,99186.41
2022-08-26T10:30:25.391Z,99189.19
2022-08-26T10:32:59.451Z,99181.84
2022-08-26T10:35:30.451Z,99177.81
2022-08-26T10:38:04.263Z,99183.28
2022-08-26T10:40:46.422Z,99178.47
2022-08-26T10:43:23.781Z,99178.00
2022-08-26T10:45:58.456Z,99175.84
2022-08-26T10:48:36.041Z,99175.84
2022-08-26T10:51:07.162Z,99178.09
2022-08-26T10:53:56.282Z,99174.03
2022-08-26T10:56:40.299Z,99173.44
2022-08-26T10:59:19.162Z,99171.69
2022-08-26T11:01:54.811Z,99163.44
2022-08-26T11:04:45.777Z,99155.03
2022-08-26T11:07:38.401Z,99153.56
2022-08-26T11:10:14.149Z,99143.75
2022-08-26T11:12:59.595Z,99150.31
2022-08-26T11:15:50.125Z,99147.53
2022-08-26T11:18:41.592Z,99131.41
2022-08-26T11:21:39.766Z,99138.38
2022-08-26T11:24:08.374Z,99133.31
2022-08-26T11:26:55.925Z,99121.59
2022-08-26T11:29:51.073Z,99125.22
2022-08-26T11:32:46.721Z,99124.56
2022-08-26T11:35:39.436Z,99112.00
2022-08-26T11:38:18.682Z,99114.50
2022-08-26T11:40:58.421Z,99117.03
2022-08-26T11:43:30.502Z,99121.38
2022-08-26T11:46:04.749Z,99117.44
2022-08-26T11:48:36.824Z,99117.88
2022-08-26T11:51:09.359Z,99110.91
2022-08-26T11:53:40.253Z,99107.22
2022-08-26T11:56:12.133Z,99114.78
2022-08-26T11:58:46.471Z,99120.13
2022-08-26T12:01:27.580Z,99117.69
2022-08-26T12:04:01.181Z,99114.97
2022-08-26T12:06:36.389Z,99110.91
2022-08-26T12:09:15.305Z,99108.25
2022-08-26T12:11:44.102Z,99104.69
2022-08-26T12:14:20.162Z,99110.03
2022-08-26T12:16:49.454Z,99106.41
2022-08-26T12:19:27.426Z,99100.22
2022-08-26T12:22:05.515Z,99102.25
2022-08-26T12:24:34.418Z,99097.81
2022-08-26T12:27:22.615Z,99094.88
2022-08-26T12:30:08.300Z,99093.88
2022-08-26T12:32:58.202Z,99093.56
2022-08-26T12:35:29.465Z,99096.38
2022-08-26T12:37:59.142Z,99089.22
2022-08-26T12:40:37.355Z,99083.41
2022-08-26T12:43:08.241Z,99073.09
2022-08-26T12:45:41.863Z,99079.75
2022-08-26T12:48:13.841Z,99075.75
2022-08-26T12:50:48.825Z,99070.59
2022-08-26T12:53:23.432Z,99066.72
2022-08-26T12:55:54.690Z,99071.31
2022-08-26T12:58:28.022Z,99068.91
2022-08-26T13:01:00.282Z,99060.63
2022-08-26T13:03:33.154Z,99061.59
2022-08-26T13:06:15.936Z,99062.28
2022-08-26T13:08:47.031Z,99065.38
2022-08-26T13:11:20.832Z,99063.19
2022-08-26T13:13:52.186Z,99061.69
2022-08-26T13:16:24.305Z,99057.47
2022-08-26T13:18:55.234Z,99053.88
2022-08-26T13:21:27.193Z,99054.59
2022-08-26T13:23:58.013Z,99053.22
2022-08-26T13:26:27.626Z,99050.38
2022-08-26T13:29:01.737Z,99043.38
2022-08-26T13:31:35.905Z,99044.81
2022-08-26T13:34:06.508Z,99038.19
2022-08-26T13:36:35.235Z,99045.44
2022-08-26T13:39:04.412Z,99052.66
2022-08-26T13:41:33.304Z,99064.59
2022-08-26T13:44:02.056Z,99067.53
2022-08-26T13:46:32.578Z,99076.31
2022-08-26T13:49:01.376Z,99087.00
2022-08-26T13:51:31.331Z,99086.66
2022-08-26T13:54:00.386Z,99084.44
2022-08-26T13:56:31.294Z,99088.38
2022-08-26T13:59:01.468Z,99084.81
2022-08-26T14:01:33.984Z,99083.41
2022-08-26T14:04:03.483Z,99086.28
2022-08-26T14:06:32.551Z,99079.56
2022-08-26T14:09:01.066Z,99089.72
2022-08-26T14:11:49.053Z,99089.50
2022-08-26T14:14:19.225Z,99095.91
2022-08-26T14:16:51.293Z,99092.94
2022-08-26T14:19:30.733Z,99098.34
2022-08-26T14:22:02.019Z,99107.56
2022-08-26T14:24:31.303Z,99112.66
2022-08-26T14:26:59.754Z,99117.50
2022-08-26T14:29:28.653Z,99114.16
2022-08-26T14:32:00.434Z,99104.53
2022-08-26T14:34:29.636Z,99106.00
2022-08-26T14:36:58.292Z,99109.44
2022-08-26T14:39:37.633Z,99099.50
2022-08-26T14:42:06.852Z,99100.25
2022-08-26T14:44:35.845Z,99092.50
2022-08-26T14:47:07.513Z,99095.84
2022-08-26T14:49:36.442Z,99088.63
2022-08-26T14:52:05.747Z,99091.63
2022-08-26T14:54:33.878Z,99091.06
2022-08-26T14:57:06.201Z,99088.88
2022-08-26T14:59:38.965Z,99085.53
2022-08-26T15:02:11.915Z,99080.00
2022-08-26T15:04:43.165Z,99067.09
2022-08-26T15:07:12.631Z,99079.25
2022-08-26T15:09:41.813Z,99068.75
2022-08-26T15:12:10.593Z,99062.78
2022-08-26T15:14:39.765Z,99056.66
2022-08-26T15:17:09.885Z,99049.16
2022-08-26T15:19:38.976Z,99046.44
2022-08-26T15:22:07.757Z,99045.25
2022-08-26T15:24:36.814Z,99032.50
2022-08-26T15:27:06.746Z,99032.50
2022-08-26T15:29:36.404Z,99031.69
2022-08-26T15:32:06.320Z,99026.09
2022-08-26T15:34:36.656Z,99017.19
2022-08-26T15:37:06.395Z,99011.69
2022-08-26T15:39:35.947Z,99008.81
2022-08-26T15:42:05.215Z,99003.13
2022-08-26T15:44:34.373Z,98998.69
2022-08-26T15:47:03.237Z,98999.53
2022-08-26T15:49:32.292Z,98999.53
2022-08-26T15:52:05.245Z,98992.88
2022-08-26T15:54:34.698Z,98993.97
2022-08-26T15:57:08.211Z,98997.09
2022-08-26T15:59:39.948Z,98998.72
2022-08-26T16:02:09.407Z,99000.50
2022-08-26T16:04:38.800Z,98999.94
2022-08-26T16:07:09.185Z,99001.84
2022-08-26T16:09:38.104Z,98994.47
2022-08-26T16:12:07.244Z,98991.38
2022-08-26T16:14:36.524Z,98991.19
2022-08-26T16:17:05.083Z,98991.94
2022-08-26T16:19:33.768Z,98992.19
2022-08-26T16:22:02.884Z,98984.88
2022-08-26T16:24:32.935Z,98990.41
2022-08-26T16:27:01.635Z,98988.03
2022-08-26T16:29:32.209Z,98978.75
2022-08-26T16:32:00.839Z,98974.91
2022-08-26T16:34:29.331Z,98970.22
2022-08-26T16:36:58.129Z,98969.03
2022-08-26T16:39:26.977Z,98972.34
2022-08-26T16:41:56.977Z,98979.16
2022-08-26T16:44:26.174Z,98980.41
2022-08-26T16:46:59.559Z,98982.56
2022-08-26T16:49:28.300Z,98983.75
2022-08-26T16:51:57.141Z,98985.78
2022-08-26T16:54:25.792Z,98998.63
2022-08-26T16:56:54.567Z,98995.19
2022-08-26T16:59:24.589Z,98983.25
2022-08-26T17:01:53.458Z,98988.97
2022-08-26T17:04:22.620Z,98988.97
2022-08-26T17:06:51.978Z,98990.06
2022-08-26T17:09:20.868Z,98989.56
2022-08-26T17:11:50.682Z,98994.22
2022-08-26T17:14:19.720Z,98999.72
2022-08-26T17:16:51.842Z,98993.28
2022-08-26T17:19:22.129Z,98994.03
2022-08-26T17:21:51.013Z,98998.78
2022-08-26T17:24:19.727Z,99008.09
2022-08-26T17:26:53.539Z,99007.84
2022-08-26T17:29:27.681Z,99005.03
2022-08-26T17:31:57.814Z,99010.72
2022-08-26T17:34:26.441Z,99008.06
2022-08-26T17:36:56.373Z,99009.03
2022-08-26T17:39:25.043Z,99007.13
2022-08-26T17:41:53.703Z,99004.09
2022-08-26T17:44:22.433Z,99003.75
2022-08-26T17:46:51.065Z,99001.50
2022-08-26T17:49:21.235Z,99003.50
2022-08-26T17:51:50.762Z,99000.06
2022-08-26T17:54:19.736Z,99005.53
2022-08-26T17:56:48.401Z,99005.88
2022-08-26T17:59:17.442Z,99002.09
2022-08-26T18:01:47.193Z,99006.03
2022-08-26T18:04:16.129Z,99001.03
2022-08-26T18:06:46.549Z,99014.31
2022-08-26T18:09:15.193Z,99016.34
2022-08-26T18:11:44.013Z,99027.88
2022-08-26T18:14:12.737Z,99024.75
2022-08-26T18:16:41.852Z,99030.66
2022-08-26T18:19:10.508Z,99032.28
2022-08-26T18:21:39.163Z,99031.69
2022-08-26T18:24:13.830Z,99037.56
2022-08-26T18:26:48.726Z,99032.78
2022-08-26T18:29:19.968Z,99040.19
2022-08-26T18:31:49.858Z,99039.81
2022-08-26T18:34:19.678Z,99038.78
2022-08-26T18:36:48.810Z,99038.41
2022-08-26T18:39:23.581Z,99041.53
2022-08-26T18:41:53.671Z,99043.41
2022-08-26T18:44:23.526Z,99042.78
2022-08-26T18:46:52.669Z,99048.13
2022-08-26T18:49:23.431Z,99055.94
2022-08-26T18:51:52.677Z,99058.22
2022-08-26T18:54:22.801Z,99063.25
2022-08-26T18:56:52.270Z,99065.13
2022-08-26T18:59:27.948Z,99065.13
2022-08-26T19:02:00.059Z,99063.66
2022-08-26T19:04:28.844Z,99070.75
2022-08-26T19:06:57.436Z,99060.63
2022-08-26T19:09:28.089Z,99064.28
2022-08-26T19:11:59.014Z,99067.84
2022-08-26T19:14:27.761Z,99068.03
2022-08-26T19:16:56.611Z,99071.78
2022-08-26T19:19:25.321Z,99066.97
2022-08-26T19:21:54.682Z,99066.13
2022-08-26T19:24:25.987Z,99075.22
2022-08-26T19:27:00.982Z,99081.38
2022-08-26T19:29:32.082Z,99069.47
2022-08-26T19:32:02.110Z,99063.72
2022-08-26T19:34:30.911Z,99067.78
2022-08-26T19:37:00.121Z,99077.38
2022-08-26T19:39:28.800Z,99075.06
2022-08-26T19:42:01.211Z,99079.19
2022-08-26T19:44:49.590Z,99089.06
2022-08-26T19:47:18.310Z,99083.13
2022-08-26T19:49:47.520Z,99092.09
2022-08-26T19:52:16.120Z,99092.28
2022-08-26T19:54:45.211Z,99095.06
2022-08-26T19:57:15.340Z,99095.19
2022-08-26T19:59:44.919Z,99104.78
2022-08-26T20:02:14.587Z,99101.44
2022-08-26T20:04:43.810Z,99101.53
2022-08-26T20:07:18.540Z,99099.97
2022-08-26T20:09:49.830Z,99093.06
2022-08-26T20:12:20.152Z,99091.41
2022-08-26T20:14:49.316Z,99098.50
2022-08-26T20:17:17.936Z,99094.31
2022-08-26T20:19:56.650Z,99102.22
2022-08-26T20:22:25.711Z,99105.78
2022-08-26T20:24:54.337Z,99107.63
2022-08-26T20:27:37.942Z,99106.13
2022-08-26T20:30:09.878Z,99110.06
2022-08-26T20:32:39.047Z,99110.25
2022-08-26T20:35:09.636Z,99105.44
2022-08-26T20:37:39.226Z,99113.38
2022-08-26T20:40:09.002Z,99117.00
2022-08-26T20:42:39.507Z,99121.44
2022-08-26T20:45:09.598Z,99112.88
2022-08-26T20:47:38.681Z,99120.13
2022-08-26T20:50:08.892Z,99123.19
2022-08-26T20:52:37.566Z,99121.72
2022-08-26T20:55:07.416Z,99117.53
2022-08-26T20:57:36.159Z,99116.50
2022-08-26T21:00:07.897Z,99111.41
2022-08-26T21:02:37.291Z,99113.34
2022-08-26T21:05:07.149Z,99115.19
2022-08-26T21:07:36.320Z,99107.66
2022-08-26T21:10:05.441Z,99113.06
2022-08-26T21:12:34.217Z,99111.56
2022-08-26T21:15:03.428Z,99113.63
2022-08-26T21:17:34.002Z,99114.00
2022-08-26T21:20:02.909Z,99111.41
2022-08-26T21:22:31.597Z,99107.22
2022-08-26T21:25:00.288Z,99103.78
2022-08-26T21:27:29.297Z,99104.69
2022-08-26T21:29:58.259Z,99106.44
2022-08-26T21:32:26.829Z,99096.88
2022-08-26T21:34:58.346Z,99102.09
2022-08-26T21:37:29.395Z,99090.94
2022-08-26T21:40:02.209Z,99087.03
2022-08-26T21:42:33.905Z,99081.09
2022-08-26T21:45:03.652Z,99081.16
2022-08-26T21:47:33.200Z,99090.75
2022-08-26T21:50:03.057Z,99083.84
2022-08-26T21:52:32.292Z,99083.41
2022-08-26T21:55:02.487Z,99089.63
2022-08-26T21:57:31.937Z,99083.84
2022-08-26T22:00:00.708Z,99085.66
2022-08-26T22:02:35.235Z,99082.09
2022-08-26T22:05:05.767Z,99074.31
2022-08-26T22:07:34.825Z,99082.34
2022-08-26T22:10:04.931Z,99075.44
2022-08-26T22:12:33.651Z,99072.09
2022-08-26T22:15:02.926Z,99074.03
2022-08-26T22:17:32.020Z,99077.41
2022-08-26T22:20:00.600Z,99079.00
2022-08-26T22:22:31.471Z,99073.00
2022-08-26T22:25:00.402Z,99072.28
2022-08-26T22:27:29.099Z,99076.72
2022-08-26T22:29:58.090Z,99079.50
2022-08-26T22:32:26.669Z,99078.75
2022-08-26T22:34:55.341Z,99078.00
2022-08-26T22:37:24.040Z,99076.53
2022-08-26T22:39:54.133Z,99073.34
2022-08-26T22:42:22.981Z,99067.59
2022-08-26T22:44:51.707Z,99057.53
2022-08-26T22:47:20.659Z,99056.88
2022-08-26T22:49:49.399Z,99057.72
2022-08-26T22:52:18.220Z,99059.75
2022-08-26T22:54:46.943Z,99058.16
2022-08-26T22:57:16.973Z,99058.22
2022-08-26T22:59:46.540Z,99059.91
2022-08-26T23:02:14.968Z,99059.91
2022-08-26T23:04:43.809Z,99059.81
2022-08-26T23:07:13.562Z,99068.47
2022-08-26T23:09:42.398Z,99063.53
2022-08-26T23:12:11.050Z,99061.19
2022-08-26T23:14:41.729Z,99047.34
2022-08-26T23:17:12.440Z,99056.25
2022-08-26T23:19:41.132Z,99056.44
2022-08-26T23:22:09.948Z,99054.69
2022-08-26T23:24:38.590Z,99059.59
2022-08-26T23:27:07.500Z,99058.75
2022-08-26T23:29:37.020Z,99057.28
2022-08-26T23:32:07.648Z,99056.53
2022-08-26T23:34:46.122Z,99054.94
2022-08-26T23:37:17.028Z,99052.25
2022-08-26T23:39:45.962Z,99046.31
2022-08-26T23:42:14.689Z,99048.06
2022-08-26T23:44:43.851Z,99050.00
2022-08-26T23:47:25.451Z,99043.25
2022-08-26T23:49:54.933Z,99040.66
2022-08-26T23:52:33.545Z,99032.28
2022-08-26T23:55:02.443Z,99033.28
2022-08-26T23:57:31.352Z,99037.09
